Weather observations for the past three days for
Sebastian Municipal Airport
Imperial (Metric)
Date Time (edt) Wind (mph) Vis. (mi.) Weather Sky Cond. Temperature (ºF) Relative Humidity Wind Chill (°F) Heat Index (°F) Pressure Precipitation (in)
Air Dwpt 6 hour altimeter (in) sea level (mb) 1 hr 3 hr 6 hr
Max. Min.
07 14:55 SE 7 10.00 Partly Cloudy SCT060 87.8 73.4 62% 96 29.96 0.0
07 14:35 E 6 10.00 Mostly Cloudy BKN060 87.8 73.4 62% 96 29.96 0.0
07 14:15 Vrbl 7 10.00 Mostly Cloudy SCT050 BKN060 91.4 69.8 49% 97 29.97 0.0
07 13:55 W 12 G 17 10.00 Partly Cloudy FEW048 SCT055 89.6 69.8 91.2 67.8 52% 95 29.97 0.0
07 13:35 W 7 10.00 Mostly Cloudy SCT048 BKN055 89.6 69.8 52% 95 29.98 0.0
07 13:15 Vrbl 7 10.00 A Few Clouds FEW048 91.4 71.6 52% 99 29.98 0.0
07 12:55 SW 8 10.00 A Few Clouds FEW044 FEW049 89.6 71.6 55% 96 29.98 0.0
07 12:35 SW 7 10.00 Mostly Cloudy BKN040 BKN047 87.8 71.6 59% 94 29.99 0.0
07 12:15 W 7 10.00 Mostly Cloudy BKN038 86 71.6 62% 92 30 0.0
07 11:55 SW 7 10.00 A Few Clouds FEW036 87.8 73.4 62% 96 30 0.0
07 11:35 Vrbl 6 10.00 Fair CLR 86 71.6 62% 92 30.01 0.0
07 11:15 SW 8 10.00 Fair CLR 86 71.6 62% 92 30.01 0.0
07 10:55 S 8 10.00 Fair CLR 84.2 71.6 66% 90 30.02 0.0
07 10:35 SW 9 10.00 Fair CLR 84.2 71.6 66% 90 30.02 0.0
07 10:15 SW 9 10.00 Fair CLR 82.4 71.6 70% 87 30.02 0.0
07 09:55 S 12 10.00 Fair CLR 82.4 69.8 66% 86 30.02 0.0
07 09:35 S 7 10.00 Fair CLR 80.6 69.8 70% 84 30.02 0.0
07 09:15 S 7 10.00 Fair CLR 78.8 69.8 74% 81 30.02 0.0
07 08:55 S 8 10.00 Fair CLR 77 69.8 79% 79 30.02 0.0
07 08:35 S 5 10.00 Fair CLR 75.2 69.8 83% 75 30.02 0.0
07 07:55 Calm 10.00 Fair CLR 68 68 68.9 63.7 100% 30.02 0.0
07 07:35 N 1 10.00 Light Rain CLR 66.2 66.2 100% 30.02 0.0
07 07:16 Calm 4.00 Light Rain Fog/Mist CLR 66.2 66.2 100% 30.01 0.0
07 06:55 SW 2 10.00 Fair CLR 64.4 64.4 100% 30.01 0.0
07 06:35 W 3 10.00 Fair CLR 64.4 64.4 100% 30 0.0
07 06:15 W 2 10.00 Fair CLR 64.4 64.4 100% 29.99 0.0
07 05:55 S 1 10.00 Fair CLR 64.4 64.4 100% 29.98 0.0
07 05:35 SW 1 10.00 Fair CLR 66.2 66.2 100% 29.98 0.0
07 05:15 W 2 10.00 Fair CLR 66.2 66.2 100% 29.98 0.0
07 04:55 S 2 10.00 Fair CLR 66.2 66.2 100% 29.96 0.0
07 04:35 S 2 10.00 Fair CLR 66.2 66.2 100% 29.97 0.0
07 04:15 W 1 10.00 Fair CLR 66.2 66.2 100% 29.97 0.0
07 03:55 W 1 10.00 Fair CLR 66.2 66.2 100% 29.97 0.0
07 03:35 NW 2 10.00 Fair CLR 68 68 100% 29.97 0.0
07 03:15 W 2 10.00 Fair CLR 66.2 66.2 100% 29.98 0.0
07 02:55 W 2 10.00 Fair CLR 68 68 100% 29.99 0.0
07 02:36 W 1 10.00 Fair CLR 68 68 100% 29.99 0.0
07 02:15 Calm 10.00 Fair CLR 68 68 100% 29.99 0.0
07 01:55 SW 2 10.00 Fair CLR 68 68 79.2 68.9 100% 30 0.0
07 01:35 W 5 10.00 Fair CLR 69.8 68 94% 30.01 0.0
07 01:15 W 7 10.00 Fair CLR 73.4 69.8 89% 30.02 0.0
07 00:55 S 3 10.00 Fair CLR 75.2 69.8 83% 75 30.01 0.0
07 00:35 SE 5 10.00 Fair CLR 75.2 69.8 83% 75 30.01 0.0
07 00:15 SE 6 10.00 Fair CLR 75.2 69.8 83% 75 30.01 0.0
06 23:55 SE 7 10.00 Fair CLR 75.2 69.8 83% 75 30.01 0.0
06 23:35 SE 8 10.00 Fair CLR 75.2 69.8 83% 75 30.01 0.0
06 23:15 SE 8 10.00 Fair CLR 77 69.8 79% 79 30 0.0
06 22:35 SE 8 10.00 Fair CLR 77 69.8 79% 79 30.01 0.0
06 22:15 SE 7 10.00 Fair CLR 77 69.8 79% 79 30.02 0.0
06 21:55 SE 7 10.00 Fair CLR 77 69.8 79% 79 30.02 0.0
06 21:35 SE 6 10.00 Fair CLR 77 69.8 79% 79 30.02 0.0
06 21:15 SE 7 10.00 Fair CLR 77 68 74% 79 30.01 0.0
06 20:55 SE 7 10.00 Fair CLR 77 68 74% 79 30.01 0.0
06 20:35 SE 7 10.00 Fair CLR 77 66.2 69% 79 30 0.0
06 20:15 SE 7 10.00 Fair CLR 77 66.2 69% 79 30 0.0
06 19:55 SE 9 10.00 Fair CLR 78.8 66.2 87.1 79.2 65% 81 30 0.0
06 19:35 SE 9 10.00 Fair CLR 80.6 64.4 58% 82 30 0.0
06 19:15 SE 10 10.00 Fair CLR 80.6 64.4 58% 82 30 0.0
06 18:55 E 13 10.00 Fair CLR 82.4 64.4 55% 84 30 0.0
06 18:35 E 13 10.00 Fair CLR 82.4 62.6 51% 83 30 0.0
06 17:55 SE 12 10.00 Fair CLR 84.2 66.2 55% 87 30 0.0
06 17:35 E 12 10.00 Fair CLR 84.2 66.2 55% 87 30.01 0.0
06 17:15 E 13 10.00 Fair CLR 84.2 68 58% 87 30 0.0
06 16:55 E 12 10.00 Fair CLR 84.2 68 58% 87 30 0.0
06 16:35 E 12 10.00 Fair CLR 84.2 68 58% 87 30 0.0
06 16:15 E 14 10.00 Fair CLR 84.2 68 58% 87 30 0.0
06 15:55 SE 13 10.00 Fair CLR 86 66.2 52% 88 30.01 0.0
06 15:35 E 12 G 18 10.00 Fair CLR 86 66.2 52% 88 30.01 0.0
06 15:15 E 13 G 16 10.00 Fair CLR 86 66.2 52% 88 30.01 0.0
06 14:55 E 10 10.00 Fair CLR 86 64.4 49% 87 30.02 0.0
06 14:35 E 12 10.00 Fair CLR 86 66.2 52% 88 30.03 0.0
06 14:15 E 12 10.00 Fair CLR 86 66.2 52% 88 30.03 0.0
06 13:55 E 10 10.00 Fair CLR 86 66.2 87.1 68.4 52% 88 30.04 0.0
06 13:35 E 10 10.00 Fair CLR 86 64.4 49% 87 30.04 0.0
06 13:15 E 9 10.00 Fair CLR 86 66.2 52% 88 30.04 0.0
06 12:55 E 7 10.00 Fair CLR 86 62.6 46% 87 30.04 0.0
06 12:35 E 10 10.00 Fair CLR 86 64.4 49% 87 30.05 0.0
06 12:15 E 10 10.00 Fair CLR 86 66.2 52% 88 30.05 0.0
06 11:55 E 9 10.00 Fair CLR 86 66.2 52% 88 30.05 0.0
06 11:35 SE 7 10.00 Fair CLR 84.2 66.2 55% 87 30.05 0.0
06 11:15 SE 9 10.00 Fair CLR 84.2 69.8 62% 88 30.05 0.0
06 10:55 SE 8 10.00 Fair CLR 82.4 69.8 66% 86 30.05 0.0
06 10:35 E 8 10.00 Fair CLR 82.4 71.6 70% 87 30.05 0.0
06 10:15 SE 8 10.00 Fair CLR 80.6 71.6 74% 85 30.05 0.0
06 09:55 SE 8 10.00 Fair CLR 80.6 73.4 79% 85 30.04 0.0
06 09:35 SE 7 10.00 Fair CLR 78.8 71.6 79% 82 30.04 0.0
06 09:15 SE 8 10.00 Fair CLR 78.8 73.4 84% 82 30.03 0.0
06 08:55 E 7 10.00 Fair CLR 77 73.4 89% 78 30.03 0.0
06 08:15 Calm 10.00 Fair CLR 71.6 69.8 94% 30.03 0.0
06 07:55 Calm 8.00 Light Rain CLR 68 68 73.8 64.9 100% 30.02 0.0
06 07:35 Calm 4.00 Light Rain Fog/Mist CLR 66.2 66.2 100% 30.02 0.0
06 06:55 W 2 10.00 Fair CLR 64.4 64.4 100% 30.01 0.0
06 06:35 W 1 10.00 Fair CLR 66.2 66.2 100% 30 0.0
06 06:15 SW 1 10.00 Fair CLR 66.2 66.2 100% 30 0.0
06 05:55 Calm 10.00 Fair CLR 66.2 66.2 100% 30 0.0
06 05:35 Calm 10.00 Fair CLR 66.2 66.2 100% 29.99 0.0
06 05:15 Calm 10.00 Fair CLR 66.2 66.2 100% 29.99 0.0
06 04:55 Calm 10.00 Fair CLR 66.2 66.2 100% 29.99 0.0
06 04:35 S 1 10.00 Fair CLR 66.2 66.2 100% 29.99 0.0
06 04:15 S 1 10.00 Fair CLR 68 68 100% 29.99 0.0
06 03:55 Calm 10.00 Fair CLR 68 68 100% 29.99 0.0
06 03:35 SE 1 10.00 Fair CLR 69.8 68 94% 29.99 0.0
06 03:15 SE 2 10.00 Fair CLR 69.8 68 94% 30 0.0
06 02:55 E 3 10.00 Fair CLR 73.4 69.8 89% 30 0.0
06 02:35 E 3 10.00 Fair CLR 73.4 69.8 89% 30 0.0
06 02:15 E 3 10.00 Fair CLR 73.4 68 83% 30.01 0.0
06 01:55 E 5 10.00 Fair CLR 73.4 69.8 75.9 73 89% 30.01 0.0
06 01:35 E 6 10.00 Fair CLR 73.4 69.8 89% 30.01 0.0
06 01:15 SE 5 10.00 Fair CLR 73.4 69.8 89% 30.02 0.0
06 00:55 E 5 10.00 Fair CLR 73.4 68 83% 30.01 0.0
06 00:35 E 7 10.00 Fair CLR 75.2 68 78% 76 30.01 0.0
06 00:15 E 7 10.00 Fair CLR 75.2 68 78% 76 30.02 0.0
05 23:55 E 6 10.00 Fair CLR 75.2 66.2 74% 77 30.02 0.0
05 23:35 E 7 10.00 Fair CLR 75.2 66.2 74% 77 30.03 0.0
05 23:15 E 6 10.00 Fair CLR 75.2 66.2 74% 77 30.03 0.0
05 22:55 E 7 10.00 Fair CLR 75.2 66.2 74% 77 30.02 0.0
05 22:35 E 10 10.00 Fair CLR 75.2 66.2 74% 77 30.02 0.0
05 22:15 E 8 10.00 Fair CLR 75.2 66.2 74% 77 30.01 0.0
05 21:55 E 9 10.00 Fair CLR 75.2 66.2 74% 77 30.01 0.0
05 21:35 E 9 10.00 Fair CLR 75.2 66.2 74% 77 30 0.0
05 21:15 E 10 10.00 Fair CLR 75.2 64.4 69% 77 30 0.0
05 20:55 E 9 10.00 Fair CLR 75.2 64.4 69% 77 29.99 0.0
05 20:35 E 9 10.00 Fair CLR 75.2 64.4 69% 77 29.99 0.0
05 20:15 E 9 10.00 Fair CLR 75.2 64.4 69% 77 29.98 0.0
05 19:55 NE 10 10.00 Fair CLR 75.2 64.4 82.6 75.7 69% 77 29.98 0.0
05 19:35 E 10 10.00 Fair CLR 77 64.4 65% 79 29.98 0.0
05 19:15 E 9 10.00 Fair CLR 77 64.4 65% 79 29.98 0.0
05 18:55 NE 13 10.00 Fair CLR 78.8 64.4 61% 81 29.99 0.0
05 18:35 NE 13 10.00 Fair CLR 78.8 66.2 65% 81 30 0.0
05 18:15 NE 10 10.00 Fair CLR 78.8 64.4 61% 81 29.99 0.0
05 17:55 NE 12 10.00 Fair CLR 80.6 64.4 58% 82 29.99 0.0
05 17:35 E 12 10.00 Fair CLR 80.6 64.4 58% 82 29.98 0.0
05 17:15 E 13 10.00 Fair CLR 80.6 64.4 58% 82 29.98 0.0
05 16:55 NE 13 10.00 Fair CLR 80.6 64.4 58% 82 29.98 0.0
05 16:35 E 14 10.00 Fair CLR 80.6 64.4 58% 82 29.98 0.0
05 16:15 NE 15 10.00 Fair CLR 82.4 66.2 58% 85 29.98 0.0
05 15:55 NE 14 G 18 10.00 Fair CLR 82.4 66.2 58% 85 29.99 0.0
05 15:35 NE 14 10.00 Fair CLR 82.4 66.2 58% 85 30 0.0
05 15:15 NE 14 G 18 10.00 Fair CLR 82.4 64.4 55% 84 30 0.0
05 14:55 NE 13 G 17 10.00 Fair CLR 82.4 64.4 55% 84 30.01 0.0
05 14:35 NE 14 10.00 Fair CLR 82.4 64.4 55% 84 30.02 0.0
05 14:15 NE 13 G 17 10.00 Fair CLR 82.4 64.4 55% 84 30.02 0.0
05 13:55 E 10 G 20 10.00 A Few Clouds FEW065 82.4 64.4 82.4 74.7 55% 84 30.02 0.0
05 13:35 E 12 10.00 Mostly Cloudy BKN065 80.6 62.6 54% 82 30.02 0.0
05 13:15 E 13 10.00 Mostly Cloudy BKN055 80.6 64.4 58% 82 30.02 0.0
05 12:55 E 14 G 17 10.00 Mostly Cloudy BKN055 80.6 64.4 58% 82 30.03 0.0
05 12:35 E 13 10.00 Partly Cloudy SCT055 82.4 64.4 55% 84 30.03 0.0
05 12:15 E 13 10.00 Fair CLR 80.6 66.2 62% 83 30.02 0.0
05 11:55 E 15 G 20 10.00 Fair CLR 80.6 66.2 62% 83 30.03 0.0
05 11:35 E 12 10.00 Fair CLR 80.6 66.2 62% 83 30.03 0.0
05 11:15 E 16 10.00 Fair CLR 80.6 68 66% 83 30.02 0.0
05 10:55 E 15 10.00 Fair CLR 78.8 68 70% 81 30.01 0.0
05 10:35 E 14 G 20 10.00 Fair CLR 78.8 68 70% 81 30.01 0.0
05 10:15 E 15 10.00 Fair CLR 78.8 66.2 65% 81 30.02 0.0
05 09:55 E 13 10.00 Fair CLR 78.8 66.2 65% 81 30.01 0.0
05 09:35 E 12 10.00 Fair CLR 78.8 66.2 65% 81 30 0.0
05 09:15 E 14 10.00 Fair CLR 77 66.2 69% 79 30 0.0
05 08:55 E 14 10.00 A Few Clouds FEW060 77 66.2 69% 79 30 0.0
05 08:35 E 12 10.00 Partly Cloudy SCT060 77 66.2 69% 79 30.01 0.0
05 08:15 E 10 10.00 Fair CLR 75.2 66.2 74% 77 30.01 0.0
05 07:35 E 9 10.00 Fair CLR 73.4 64.4 74% 29.99 0.0
05 07:15 E 9 10.00 Fair CLR 73.4 64.4 74% 29.98 0.0
05 06:55 E 8 10.00 Fair CLR 71.6 64.4 78% 29.98 0.0
05 06:35 E 9 10.00 A Few Clouds FEW060 71.6 64.4 78% 29.97 0.0
05 06:15 E 8 10.00 A Few Clouds FEW060 71.6 64.4 78% 29.96 0.0
05 05:55 E 6 10.00 Fair CLR 71.6 64.4 78% 29.96 0.0
05 05:35 E 7 10.00 Fair CLR 69.8 64.4 83% 29.96 0.0
05 05:15 E 6 10.00 Fair CLR 69.8 64.4 83% 29.96 0.0
05 04:55 E 6 10.00 Fair CLR 71.6 64.4 78% 29.95 0.0
05 04:35 E 5 10.00 Fair CLR 69.8 64.4 83% 29.95 0.0
05 04:15 E 5 10.00 Fair CLR 71.6 64.4 78% 29.95 0.0
05 03:55 E 6 10.00 Fair CLR 71.6 64.4 78% 29.94 0.0
05 03:35 E 6 10.00 Fair CLR 71.6 64.4 78% 29.95 0.0
05 03:15 E 7 10.00 Fair CLR 71.6 64.4 78% 29.96 0.0
05 02:55 E 7 10.00 Fair CLR 71.6 64.4 78% 29.96 0.0
05 02:35 E 10 10.00 Fair CLR 73.4 64.4 74% 29.96 0.0
05 02:15 E 9 10.00 Fair CLR 73.4 64.4 74% 29.97 0.0
05 01:55 E 10 10.00 Partly Cloudy SCT032 73.4 64.4 74.5 72 74% 29.98 0.0
05 01:35 E 7 10.00 Mostly Cloudy BKN032 73.4 64.4 74% 29.99 0.0
05 01:15 E 9 10.00 Partly Cloudy SCT032 73.4 64.4 74% 29.99 0.0
05 00:55 E 9 10.00 A Few Clouds FEW032 73.4 64.4 74% 29.99 0.0
05 00:35 E 8 10.00 A Few Clouds FEW032 73.4 64.4 74% 29.99 0.0
05 00:15 E 8 10.00 Partly Cloudy FEW030 SCT037 73.4 66.2 78% 30 0.0
04 23:55 E 8 10.00 Partly Cloudy FEW030 SCT035 73.4 66.2 78% 29.99 0.0
04 23:35 E 8 10.00 Partly Cloudy SCT034 73.4 66.2 78% 30 0.0
04 23:15 E 9 10.00 A Few Clouds FEW029 FEW034 73.4 66.2 78% 30.01 0.0
04 22:55 E 10 10.00 Partly Cloudy FEW029 SCT034 SCT041 73.4 66.2 78% 30 0.0
04 22:35 E 10 10.00 A Few Clouds FEW029 FEW036 73.4 66.2 78% 30 0.0
04 22:15 E 8 10.00 Partly Cloudy SCT029 SCT040 73.4 66.2 78% 30 0.0
04 21:55 E 10 10.00 Mostly Cloudy FEW038 SCT046 BKN060 73.4 66.2 78% 30 0.0
04 21:35 E 10 10.00 Overcast FEW029 SCT040 OVC060 73.4 66.2 78% 30 0.0
04 21:15 E 9 10.00 Overcast BKN027 BKN034 OVC050 73.4 66.2 78% 30 0.0
04 20:55 E 8 10.00 Overcast BKN027 OVC034 73.4 68 83% 29.99 0.0
04 20:35 E 12 10.00 Mostly Cloudy BKN029 BKN040 73.4 66.2 78% 29.99 0.0
04 20:15 E 15 G 21 10.00 Mostly Cloudy SCT029 BKN038 BKN060 73.4 66.2 78% 29.98 0.0
04 19:55 E 10 10.00 Overcast BKN039 BKN049 OVC060 75.2 66.2 79.7 74.3 74% 77 29.98 0.0
04 19:35 E 14 10.00 Overcast FEW042 OVC060 75.2 66.2 74% 77 29.97 0.0
04 19:15 E 14 10.00 Mostly Cloudy BKN060 75.2 66.2 74% 77 29.97 0.0
04 18:55 E 14 10.00 Mostly Cloudy BKN050 75.2 64.4 69% 77 29.97 0.0
04 18:35 E 13 10.00 Mostly Cloudy BKN048 75.2 64.4 69% 77 29.97 0.0
04 18:15 E 16 10.00 Mostly Cloudy FEW034 BKN044 BKN050 77 64.4 65% 79 29.97 0.0
04 17:55 E 14 G 18 10.00 Mostly Cloudy SCT034 BKN042 78.8 64.4 61% 81 29.97 0.0
04 17:35 E 16 10.00 Mostly Cloudy FEW031 BKN037 78.8 64.4 61% 81 29.98 0.0
04 17:15 NE 16 G 22 10.00 Partly Cloudy SCT032 SCT040 77 64.4 65% 79 29.98 0.0
04 16:55 E 15 G 22 10.00 A Few Clouds FEW048 78.8 64.4 61% 81 29.98 0.0
04 16:35 E 17 G 21 10.00 Mostly Cloudy FEW031 BKN041 BKN048 78.8 64.4 61% 81 29.98 0.0
04 16:15 E 14 G 23 10.00 Overcast BKN034 OVC045 77 64.4 65% 79 29.99 0.0
04 15:55 NE 20 10.00 Partly Cloudy SCT033 SCT042 78.8 66.2 65% 81 29.99 0.0
04 15:35 NE 18 G 24 10.00 Partly Cloudy SCT038 SCT048 SCT055 78.8 64.4 61% 81 30 0.0
04 15:15 E 17 G 22 10.00 Mostly Cloudy SCT039 SCT049 BKN055 77 66.2 69% 79 30 0.0
Date Time (edt) Wind (mph) Vis. (mi.) Weather Sky Cond. Air Dwpt Max. Min. Relative Humidity Wind Chill (°F) Heat Index (°F) altimeter (in) sea level (mb) 1 hr 3 hr 6 hr
6 hour
Temperature (ºF) Pressure Precipitation (in)